Time;durP1;ratioP1;P1;durP2;ratioP2;P2;SDS_P1;SDS_P2;PMS_P1;PMS_P2;Temp;Humidity;BMP_temperature;BMP_pressure;BME280_temperature;BME280_humidity;BME280_pressure;Samples;Min_cycle;Max_cycle;Signal;HPM_P1;HPM_P2
2020/12/22 00:06:03;;;;;;;;;;;;;;;;;;;;;
2020/12/22 00:15:57;;;;;;;20.70;16.47;;;;;;;;;;4814776;29;20779;-81
2020/12/22 00:19:02;;;;;;;;;;;;;;;;;;;;;
2020/12/22 00:22:28;;;;;;;;;;;;;;;;;;;;;
2020/12/22 00:30:02;;;;;;;;;;;;;;;;;;;;;
2020/12/22 00:54:58;;;;;;;18.83;16.90;;;;;;;;;;4695922;30;20580;-81
2020/12/22 00:58:09;;;;;;;18.47;16.50;;;;;;;;;;4758565;30;20468;-79
2020/12/22 01:01:59;;;;;;;;;;;;;;;;;;;;;
2020/12/22 01:09:23;;;;;;;16.90;14.93;;;;;;;;;;4775566;30;20424;-78
2020/12/22 01:15:30;;;;;;;23.43;16.43;;;;;;;;;;4790119;29;20990;-78
2020/12/22 01:18:52;;;;;;;;;;;;;;;;;;;;;
2020/12/22 01:25:53;;;;;;;21.60;17.30;;;;;;;;;;4853358;29;20515;-79
2020/12/22 01:38:47;;;;;;;21.47;17.23;;;;;;;;;;4975937;28;20404;-80
2020/12/22 01:42:16;;;;;;;;;;;;;;;;;;;;;
2020/12/22 01:49:24;;;;;;;;;;;;;;;;;;;;;
2020/12/22 01:52:57;;;;;;;;;;;;;;;;;;;;;
2020/12/22 01:59:45;;;;;;;20.83;15.23;;;;;;;;;;4901874;29;20404;-79
2020/12/22 02:03:04;;;;;;;;;;;;;;;;;;;;;
2020/12/22 02:06:21;;;;;;;20.03;15.90;;;;;;;;;;4933603;29;20411;-80
2020/12/22 02:13:23;;;;;;;22.00;16.73;;;;;;;;;;4919890;29;20474;-80
2020/12/22 02:16:41;;;;;;;19.73;17.67;;;;;;;;;;4899890;29;20437;-80
2020/12/22 02:19:55;;;;;;;;;;;;;;;;;;;;;
2020/12/22 02:26:32;;;;;;;19.73;15.83;;;;;;;;;;4901424;29;20444;-81
2020/12/22 02:29:34;;;;;;;;;;;;;;;;;;;;;
2020/12/22 02:32:45;;;;;;;20.37;17.00;;;;;;;;;;4903813;29;20535;-80
2020/12/22 02:39:16;;;;;;;19.97;16.63;;;;;;;;;;4937694;29;20447;-81
2020/12/22 02:51:49;;;;;;;;;;;;;;;;;;;;;
2020/12/22 02:55:03;;;;;;;19.10;15.20;;;;;;;;;;4956128;29;20883;-78
2020/12/22 02:58:03;;;;;;;22.53;18.53;;;;;;;;;;4955217;29;20420;-79
2020/12/22 03:04:19;;;;;;;;;;;;;;;;;;;;;
2020/12/22 03:07:54;;;;;;;21.20;16.83;;;;;;;;;;5041893;28;20445;-79
2020/12/22 03:14:00;;;;;;;20.33;18.13;;;;;;;;;;4998674;28;20444;-80
2020/12/22 03:19:54;;;;;;;24.17;18.10;;;;;;;;;;4956366;28;20500;-80
2020/12/22 03:22:50;;;;;;;23.90;19.40;;;;;;;;;;4961105;28;20424;-80
2020/12/22 03:25:44;;;;;;;21.10;18.13;;;;;;;;;;4936450;29;20403;-79
2020/12/22 03:28:16;;;;;;;23.60;19.20;;;;;;;;;;5055124;23;20489;-85
2020/12/22 03:30:42;;;;;;;25.83;20.20;;;;;;;;;;5056626;28;20933;-85
2020/12/22 03:33:08;;;;;;;26.17;20.17;;;;;;;;;;5039507;28;20594;-84
2020/12/22 03:35:34;;;;;;;25.57;19.80;;;;;;;;;;5042929;28;20751;-85
2020/12/22 03:38:02;;;;;;;24.37;20.27;;;;;;;;;;5042917;28;20526;-84
2020/12/22 03:40:28;;;;;;;27.90;22.07;;;;;;;;;;5041511;28;20461;-83
2020/12/22 03:42:54;;;;;;;26.00;19.80;;;;;;;;;;5061173;28;20451;-84
2020/12/22 03:45:21;;;;;;;26.50;19.93;;;;;;;;;;5060717;28;20774;-85
2020/12/22 03:47:47;;;;;;;24.93;19.80;;;;;;;;;;5038268;28;20453;-85
2020/12/22 03:50:13;;;;;;;26.37;20.20;;;;;;;;;;5029806;28;20508;-83
2020/12/22 03:52:39;;;;;;;21.60;19.20;;;;;;;;;;5047248;28;20549;-85
2020/12/22 03:55:05;;;;;;;24.53;19.87;;;;;;;;;;5029270;28;20473;-84
2020/12/22 03:57:32;;;;;;;26.70;20.10;;;;;;;;;;5055106;28;20446;-85
2020/12/22 03:59:58;;;;;;;24.30;21.70;;;;;;;;;;5060192;28;20437;-85
2020/12/22 04:02:24;;;;;;;27.20;20.93;;;;;;;;;;5030206;28;20452;-84
2020/12/22 04:04:50;;;;;;;26.33;21.30;;;;;;;;;;5039134;28;21023;-85
2020/12/22 04:07:16;;;;;;;27.80;20.23;;;;;;;;;;5062915;28;21015;-85
2020/12/22 04:09:42;;;;;;;23.10;19.80;;;;;;;;;;5045929;28;20425;-85
2020/12/22 04:12:08;;;;;;;26.50;20.90;;;;;;;;;;5045349;28;20448;-85
2020/12/22 04:14:35;;;;;;;24.00;21.00;;;;;;;;;;5063804;28;20409;-85
2020/12/22 04:17:01;;;;;;;27.70;20.20;;;;;;;;;;5062200;28;20460;-85
2020/12/22 04:19:27;;;;;;;23.13;20.67;;;;;;;;;;5060842;28;20421;-85
2020/12/22 04:21:53;;;;;;;26.27;18.87;;;;;;;;;;5060537;28;20405;-85
2020/12/22 04:24:19;;;;;;;25.37;21.90;;;;;;;;;;5061117;28;20505;-85
2020/12/22 04:26:45;;;;;;;23.60;20.03;;;;;;;;;;5059007;28;20436;-85
2020/12/22 04:29:11;;;;;;;34.43;21.40;;;;;;;;;;5080549;28;20388;-85
2020/12/22 04:31:37;;;;;;;23.17;19.60;;;;;;;;;;5080463;28;22281;-85
2020/12/22 04:34:03;;;;;;;27.67;19.77;;;;;;;;;;5074512;28;20409;-85
2020/12/22 04:36:30;;;;;;;22.63;19.93;;;;;;;;;;5062427;28;20504;-85
2020/12/22 04:38:56;;;;;;;25.70;19.70;;;;;;;;;;5046001;28;20422;-85
2020/12/22 04:41:23;;;;;;;24.00;19.03;;;;;;;;;;5048377;28;20422;-85
2020/12/22 04:43:52;;;;;;;23.10;19.00;;;;;;;;;;5044099;28;20418;-85
2020/12/22 04:46:20;;;;;;;22.40;17.17;;;;;;;;;;5023969;28;20422;-85
2020/12/22 04:48:52;;;;;;;24.03;20.50;;;;;;;;;;5026111;28;20894;-85
2020/12/22 04:51:19;;;;;;;25.20;20.00;;;;;;;;;;5045396;28;20457;-85
2020/12/22 04:53:45;;;;;;;21.30;18.63;;;;;;;;;;5045740;28;20452;-85
2020/12/22 04:56:12;;;;;;;21.47;17.40;;;;;;;;;;5045892;28;20925;-85
2020/12/22 04:58:39;;;;;;;19.90;17.40;;;;;;;;;;5030543;28;20481;-85
2020/12/22 05:01:08;;;;;;;22.87;19.70;;;;;;;;;;5048554;28;20480;-85
2020/12/22 05:03:34;;;;;;;20.77;18.50;;;;;;;;;;5044324;28;20472;-85
2020/12/22 05:06:00;;;;;;;19.23;16.73;;;;;;;;;;5026728;28;20456;-85
2020/12/22 05:08:27;;;;;;;20.33;18.20;;;;;;;;;;5027059;28;20937;-85
2020/12/22 05:10:56;;;;;;;20.33;18.17;;;;;;;;;;5047829;28;20876;-85
2020/12/22 05:13:22;;;;;;;21.70;17.00;;;;;;;;;;5064981;28;20476;-85
2020/12/22 05:15:49;;;;;;;20.07;16.70;;;;;;;;;;5050217;28;20515;-86
2020/12/22 05:18:15;;;;;;;21.43;16.40;;;;;;;;;;5068550;28;20945;-85
2020/12/22 05:20:43;;;;;;;21.80;17.93;;;;;;;;;;5068597;28;20464;-86
2020/12/22 05:23:12;;;;;;;18.97;16.83;;;;;;;;;;5055420;28;20456;-85
2020/12/22 05:25:39;;;;;;;23.40;19.47;;;;;;;;;;5048942;28;20429;-85
2020/12/22 05:28:06;;;;;;;19.50;16.33;;;;;;;;;;5046411;28;20448;-85
2020/12/22 05:30:33;;;;;;;20.57;16.03;;;;;;;;;;5042810;28;20441;-83
2020/12/22 05:32:59;;;;;;;17.07;15.40;;;;;;;;;;5041165;28;20453;-86
2020/12/22 05:35:25;;;;;;;22.00;16.80;;;;;;;;;;5060707;28;20440;-85
2020/12/22 05:37:52;;;;;;;20.40;17.87;;;;;;;;;;5038371;28;20518;-85
2020/12/22 05:40:19;;;;;;;21.80;17.37;;;;;;;;;;5047656;28;20433;-85
2020/12/22 05:42:46;;;;;;;17.93;15.80;;;;;;;;;;5044939;28;20843;-85
2020/12/22 05:45:12;;;;;;;25.43;18.50;;;;;;;;;;5030811;28;20448;-85
2020/12/22 05:47:42;;;;;;;16.90;14.50;;;;;;;;;;5048666;28;20913;-85
2020/12/22 05:50:08;;;;;;;24.60;17.17;;;;;;;;;;5048387;28;20429;-85
2020/12/22 05:52:41;;;;;;;20.60;18.20;;;;;;;;;;5052179;28;20460;-85
2020/12/22 05:55:20;;;;;;;;;;;;;;;;;;;;;
2020/12/22 05:57:46;;;;;;;18.37;16.50;;;;;;;;;;5049099;28;20868;-85
2020/12/22 06:00:15;;;;;;;18.80;16.40;;;;;;;;;;5057279;28;20780;-85
2020/12/22 06:02:42;;;;;;;21.60;15.70;;;;;;;;;;5025987;28;20795;-85
2020/12/22 06:05:08;;;;;;;20.30;14.30;;;;;;;;;;5070986;28;20444;-85
2020/12/22 06:07:35;;;;;;;17.93;14.13;;;;;;;;;;5060140;28;20453;-84
2020/12/22 06:10:01;;;;;;;16.80;14.77;;;;;;;;;;5078437;28;20421;-85
2020/12/22 06:12:30;;;;;;;16.30;14.07;;;;;;;;;;5071220;28;20525;-84
2020/12/22 06:14:56;;;;;;;15.60;14.00;;;;;;;;;;5043482;28;20599;-84
2020/12/22 06:17:22;;;;;;;15.87;14.30;;;;;;;;;;5043965;28;20450;-86
2020/12/22 06:19:48;;;;;;;16.33;12.80;;;;;;;;;;5047776;28;20441;-86
2020/12/22 06:22:15;;;;;;;15.43;14.00;;;;;;;;;;5034155;28;20428;-86
2020/12/22 06:24:44;;;;;;;15.03;13.00;;;;;;;;;;5064798;28;20406;-86
2020/12/22 06:27:11;;;;;;;14.87;13.43;;;;;;;;;;5045112;28;20480;-85
2020/12/22 06:29:42;;;;;;;12.17;10.80;;;;;;;;;;5049031;28;20432;-84
2020/12/22 06:32:17;;;;;;;11.00;9.90;;;;;;;;;;5036367;28;20454;-85
2020/12/22 06:34:44;;;;;;;13.77;11.10;;;;;;;;;;5066159;28;20933;-86
2020/12/22 06:37:10;;;;;;;17.77;12.13;;;;;;;;;;5066271;28;20529;-86
2020/12/22 06:39:39;;;;;;;13.13;10.73;;;;;;;;;;5027289;28;20488;-85
2020/12/22 06:42:06;;;;;;;17.63;10.93;;;;;;;;;;5042939;28;20476;-86
2020/12/22 06:44:32;;;;;;;13.03;11.60;;;;;;;;;;5061662;28;20487;-86
2020/12/22 06:46:59;;;;;;;11.80;10.60;;;;;;;;;;5057490;28;20945;-85
2020/12/22 06:49:45;;;;;;;14.87;12.27;;;;;;;;;;5020229;28;20512;-86
2020/12/22 06:52:38;;;;;;;12.13;10.53;;;;;;;;;;5023535;28;20451;-85
2020/12/22 06:55:05;;;;;;;12.23;11.00;;;;;;;;;;5053164;28;20430;-85
2020/12/22 06:57:48;;;;;;;13.70;12.40;;;;;;;;;;5033395;28;20426;-85
2020/12/22 07:00:25;;;;;;;12.33;10.03;;;;;;;;;;5048505;28;20417;-85
2020/12/22 07:02:51;;;;;;;10.40;9.50;;;;;;;;;;5048046;28;20418;-86
2020/12/22 07:05:39;;;;;;;9.53;8.57;;;;;;;;;;5046919;28;20413;-85
2020/12/22 07:08:06;;;;;;;9.90;8.93;;;;;;;;;;5050256;28;20425;-86
2020/12/22 07:10:37;;;;;;;10.60;9.50;;;;;;;;;;5029055;28;20414;-86
2020/12/22 07:13:04;;;;;;;10.57;9.57;;;;;;;;;;5064893;28;20457;-86
2020/12/22 07:15:31;;;;;;;10.20;8.13;;;;;;;;;;5048675;28;20460;-86
2020/12/22 07:18:04;;;;;;;10.57;9.67;;;;;;;;;;5049791;28;20456;-85
2020/12/22 07:20:32;;;;;;;8.97;8.17;;;;;;;;;;5051019;28;20416;-86
2020/12/22 07:22:58;;;;;;;8.77;7.93;;;;;;;;;;5050680;28;20432;-85
2020/12/22 07:25:27;;;;;;;9.60;7.80;;;;;;;;;;5049145;28;20454;-85
2020/12/22 07:27:53;;;;;;;9.70;8.70;;;;;;;;;;5035617;28;20464;-85
2020/12/22 07:30:19;;;;;;;11.63;8.27;;;;;;;;;;5068978;28;20796;-85
2020/12/22 07:32:46;;;;;;;10.17;9.17;;;;;;;;;;5035824;28;20488;-86
2020/12/22 07:35:12;;;;;;;9.13;8.43;;;;;;;;;;5066976;28;20934;-86
2020/12/22 07:37:39;;;;;;;8.57;7.67;;;;;;;;;;5052554;28;20839;-85
2020/12/22 07:40:09;;;;;;;8.37;7.70;;;;;;;;;;5013053;28;20777;-85
2020/12/22 07:42:35;;;;;;;9.00;8.00;;;;;;;;;;5061117;28;20434;-85
2020/12/22 07:45:06;;;;;;;8.67;7.97;;;;;;;;;;5070982;28;20430;-86
2020/12/22 07:47:32;;;;;;;8.47;7.67;;;;;;;;;;5080444;28;20853;-85
2020/12/22 07:50:01;;;;;;;7.17;6.47;;;;;;;;;;5062933;28;20430;-86
2020/12/22 07:52:28;;;;;;;7.27;6.57;;;;;;;;;;5047716;28;20443;-84
2020/12/22 07:54:57;;;;;;;8.10;7.43;;;;;;;;;;5054257;28;20434;-83
2020/12/22 07:57:25;;;;;;;6.83;6.23;;;;;;;;;;5050281;28;20483;-83
2020/12/22 07:59:51;;;;;;;5.80;5.40;;;;;;;;;;5048074;28;20466;-83
2020/12/22 08:02:24;;;;;;;7.13;6.53;;;;;;;;;;5041878;28;20419;-83
2020/12/22 08:04:50;;;;;;;7.67;6.97;;;;;;;;;;5054702;28;20454;-84
2020/12/22 08:07:18;;;;;;;5.97;5.23;;;;;;;;;;5057487;28;20924;-84
2020/12/22 08:09:45;;;;;;;5.53;5.00;;;;;;;;;;5055555;28;20431;-84
2020/12/22 08:12:11;;;;;;;6.50;6.00;;;;;;;;;;5045125;28;20460;-84
2020/12/22 08:14:39;;;;;;;6.33;5.40;;;;;;;;;;5046912;28;20433;-83
2020/12/22 08:17:26;;;;;;;5.20;4.80;;;;;;;;;;5063621;28;20443;-84
2020/12/22 08:19:53;;;;;;;5.87;5.33;;;;;;;;;;5046443;28;20424;-85
2020/12/22 08:22:19;;;;;;;4.03;3.73;;;;;;;;;;5049227;28;20431;-85
2020/12/22 08:24:46;;;;;;;5.03;4.50;;;;;;;;;;5063021;28;20822;-84
2020/12/22 08:27:12;;;;;;;5.20;3.23;;;;;;;;;;5061944;28;21022;-84
2020/12/22 08:29:42;;;;;;;5.73;4.20;;;;;;;;;;5056189;28;20440;-84
2020/12/22 08:32:08;;;;;;;4.43;4.03;;;;;;;;;;5066522;28;20448;-85
2020/12/22 08:34:35;;;;;;;3.83;3.43;;;;;;;;;;5051429;28;20459;-85
2020/12/22 08:37:10;;;;;;;3.07;2.87;;;;;;;;;;5050628;28;20638;-84
2020/12/22 08:39:40;;;;;;;2.57;2.17;;;;;;;;;;5056284;28;20386;-84
2020/12/22 08:42:10;;;;;;;6.17;4.37;;;;;;;;;;5062616;28;20574;-85
2020/12/22 08:44:36;;;;;;;4.40;2.93;;;;;;;;;;5063820;28;20457;-84
2020/12/22 08:47:12;;;;;;;3.63;3.40;;;;;;;;;;5054816;28;21055;-84
2020/12/22 08:49:38;;;;;;;2.70;2.50;;;;;;;;;;5029375;28;20416;-84
2020/12/22 08:52:12;;;;;;;4.00;3.70;;;;;;;;;;5019780;28;20472;-85
2020/12/22 08:54:38;;;;;;;3.93;3.10;;;;;;;;;;5028990;28;20465;-83
2020/12/22 08:57:12;;;;;;;2.63;2.43;;;;;;;;;;5028001;28;20442;-86
2020/12/22 08:59:39;;;;;;;3.23;2.60;;;;;;;;;;5036528;28;20446;-85
2020/12/22 09:02:05;;;;;;;3.63;2.60;;;;;;;;;;5046185;28;20864;-85
2020/12/22 09:04:32;;;;;;;4.23;2.50;;;;;;;;;;5057072;28;20435;-85
2020/12/22 09:06:59;;;;;;;4.67;2.43;;;;;;;;;;5036223;28;20460;-85
2020/12/22 09:09:33;;;;;;;2.63;2.43;;;;;;;;;;5022271;28;20511;-86
2020/12/22 09:12:06;;;;;;;2.50;2.13;;;;;;;;;;5050068;28;20445;-84
2020/12/22 09:14:42;;;;;;;1.63;1.53;;;;;;;;;;5027708;28;20822;-84
2020/12/22 09:17:12;;;;;;;3.10;2.60;;;;;;;;;;5051818;28;20539;-84
2020/12/22 09:19:43;;;;;;;3.73;3.43;;;;;;;;;;5058790;28;20523;-85
2020/12/22 09:22:09;;;;;;;4.77;2.90;;;;;;;;;;5041233;28;20438;-85
2020/12/22 09:24:36;;;;;;;3.83;3.03;;;;;;;;;;5045888;28;20451;-82
2020/12/22 09:27:10;;;;;;;4.07;2.83;;;;;;;;;;5095511;23;20448;-82
2020/12/22 09:29:37;;;;;;;2.30;1.97;;;;;;;;;;5006582;28;20442;-84
2020/12/22 09:32:03;;;;;;;2.80;1.80;;;;;;;;;;5039396;28;20991;-84
2020/12/22 09:34:31;;;;;;;3.23;2.33;;;;;;;;;;5048917;28;20402;-85
2020/12/22 09:36:58;;;;;;;2.70;2.50;;;;;;;;;;5047425;28;20422;-84
2020/12/22 09:39:28;;;;;;;2.90;2.50;;;;;;;;;;5069691;28;20448;-84
2020/12/22 09:41:54;;;;;;;6.00;5.30;;;;;;;;;;5049279;28;20416;-85
2020/12/22 09:44:32;;;;;;;2.90;2.70;;;;;;;;;;5049451;28;20424;-84
2020/12/22 09:47:01;;;;;;;2.97;2.70;;;;;;;;;;5047574;28;20400;-85
2020/12/22 09:49:38;;;;;;;2.37;1.80;;;;;;;;;;5030566;28;20416;-84
2020/12/22 09:52:10;;;;;;;2.87;2.43;;;;;;;;;;5048936;28;20453;-82
2020/12/22 09:54:57;;;;;;;2.87;2.63;;;;;;;;;;5047123;28;20432;-83
2020/12/22 09:57:23;;;;;;;1.83;1.60;;;;;;;;;;5054703;28;20476;-84
2020/12/22 10:03:29;;;;;;;2.33;1.77;;;;;;;;;;4978965;28;20497;-83
2020/12/22 10:05:56;;;;;;;2.63;2.43;;;;;;;;;;5030043;28;20424;-83
2020/12/22 10:11:32;;;;;;;4.50;2.20;;;;;;;;;;5060504;28;20904;-85
2020/12/22 10:13:58;;;;;;;1.97;1.77;;;;;;;;;;5067447;28;20448;-84
2020/12/22 10:16:24;;;;;;;2.10;1.90;;;;;;;;;;5066083;28;20996;-84
2020/12/22 10:18:51;;;;;;;2.93;2.70;;;;;;;;;;5066892;28;20421;-84
2020/12/22 10:21:18;;;;;;;4.73;4.30;;;;;;;;;;5032737;28;20401;-85
2020/12/22 10:23:46;;;;;;;6.03;5.30;;;;;;;;;;5031993;28;20523;-84
2020/12/22 10:26:14;;;;;;;4.53;2.63;;;;;;;;;;5065694;28;20409;-83
2020/12/22 10:28:41;;;;;;;7.00;6.10;;;;;;;;;;5032851;28;20461;-84
2020/12/22 10:31:31;;;;;;;;;;;;;;;;;;;;;
2020/12/22 10:34:10;;;;;;;8.40;7.67;;;;;;;;;;5066406;28;20472;-84
2020/12/22 10:36:47;;;;;;;5.07;3.90;;;;;;;;;;5048912;28;20429;-83
2020/12/22 10:39:13;;;;;;;6.00;5.00;;;;;;;;;;5067424;28;20867;-84
2020/12/22 10:41:42;;;;;;;4.47;2.80;;;;;;;;;;5066757;28;20397;-83
2020/12/22 10:44:18;;;;;;;;;;;;;;;;;;;;;
2020/12/22 10:47:14;;;;;;;3.30;2.23;;;;;;;;;;5070378;28;20433;-85
2020/12/22 10:49:41;;;;;;;5.10;3.43;;;;;;;;;;5037171;28;20413;-85
2020/12/22 10:52:23;;;;;;;;;;;;;;;;;;;;;
2020/12/22 10:55:02;;;;;;;4.63;4.13;;;;;;;;;;5033461;28;20453;-85
2020/12/22 10:57:32;;;;;;;3.90;3.00;;;;;;;;;;5032229;28;20928;-85
2020/12/22 10:59:59;;;;;;;5.53;2.07;;;;;;;;;;5031225;28;20497;-85
2020/12/22 11:02:25;;;;;;;9.47;6.23;;;;;;;;;;5059132;28;20413;-85
2020/12/22 11:04:54;;;;;;;4.03;3.30;;;;;;;;;;5052487;28;20420;-83
2020/12/22 11:07:26;;;;;;;3.93;3.40;;;;;;;;;;5070464;28;20437;-83
2020/12/22 11:10:22;;;;;;;;;;;;;;;;;;;;;
2020/12/22 11:12:59;;;;;;;2.10;1.93;;;;;;;;;;5071276;28;20480;-84
2020/12/22 11:15:25;;;;;;;2.60;2.30;;;;;;;;;;5073253;28;20432;-85
2020/12/22 11:17:54;;;;;;;2.67;2.47;;;;;;;;;;5035270;28;20487;-85
2020/12/22 11:20:32;;;;;;;2.60;2.37;;;;;;;;;;5057850;28;20425;-85
2020/12/22 11:22:59;;;;;;;3.10;1.63;;;;;;;;;;5032740;28;20421;-83
2020/12/22 11:25:35;;;;;;;2.40;2.20;;;;;;;;;;5049388;28;20481;-84
2020/12/22 11:28:01;;;;;;;4.17;2.40;;;;;;;;;;5032588;28;20468;-85
2020/12/22 11:30:27;;;;;;;2.87;2.60;;;;;;;;;;5033217;28;20989;-86
2020/12/22 11:33:04;;;;;;;;;;;;;;;;;;;;;
2020/12/22 11:35:33;;;;;;;3.80;3.50;;;;;;;;;;5050282;28;20417;-85
2020/12/22 11:38:02;;;;;;;4.27;3.20;;;;;;;;;;5068845;28;20445;-84
2020/12/22 11:40:29;;;;;;;4.03;2.53;;;;;;;;;;5049657;28;20409;-84
2020/12/22 11:42:55;;;;;;;2.03;1.70;;;;;;;;;;5066781;28;20759;-84
2020/12/22 11:45:21;;;;;;;1.73;1.50;;;;;;;;;;5048827;28;20428;-84
2020/12/22 11:47:47;;;;;;;2.10;1.90;;;;;;;;;;5048338;28;20571;-85
2020/12/22 11:50:17;;;;;;;4.50;2.60;;;;;;;;;;5063987;28;20402;-84
2020/12/22 11:53:06;;;;;;;;;;;;;;;;;;;;;
2020/12/22 11:55:42;;;;;;;1.50;1.40;;;;;;;;;;5049103;28;20532;-85
2020/12/22 11:58:09;;;;;;;3.57;2.77;;;;;;;;;;5047987;28;20456;-83
2020/12/22 12:00:38;;;;;;;3.30;3.00;;;;;;;;;;5067637;28;20417;-86
2020/12/22 12:03:04;;;;;;;2.67;2.47;;;;;;;;;;5050199;28;20409;-84
2020/12/22 12:05:30;;;;;;;4.40;1.77;;;;;;;;;;5032504;28;20520;-83
2020/12/22 12:08:07;;;;;;;;;;;;;;;;;;;;;
2020/12/22 12:10:46;;;;;;;;;;;;;;;;;;;;;
2020/12/22 12:13:48;;;;;;;2.03;1.50;;;;;;;;;;5047952;28;20509;-83
2020/12/22 12:16:29;;;;;;;3.13;2.63;;;;;;;;;;5044042;28;20914;-85
2020/12/22 12:19:10;;;;;;;3.40;3.10;;;;;;;;;;5050873;28;20785;-84
2020/12/22 12:22:02;;;;;;;2.37;2.10;;;;;;;;;;5050725;28;20784;-84
2020/12/22 12:25:05;;;;;;;2.23;2.07;;;;;;;;;;5067457;28;20417;-84
2020/12/22 12:27:33;;;;;;;1.90;1.80;;;;;;;;;;5066232;28;20449;-84
2020/12/22 12:30:06;;;;;;;1.93;1.83;;;;;;;;;;5066220;28;20413;-84
2020/12/22 12:33:02;;;;;;;;;;;;;;;;;;;;;
2020/12/22 12:36:39;;;;;;;1.60;1.50;;;;;;;;;;5064309;28;20423;-83
2020/12/22 12:39:31;;;;;;;1.77;1.67;;;;;;;;;;5023535;28;20526;-84
2020/12/22 12:48:47;;;;;;;4.30;2.63;;;;;;;;;;4990720;28;20444;-84
2020/12/22 12:51:13;;;;;;;2.00;1.43;;;;;;;;;;4993698;28;20432;-83
2020/12/22 12:53:40;;;;;;;2.47;2.17;;;;;;;;;;5007478;28;20467;-84
2020/12/22 12:56:11;;;;;;;1.93;1.73;;;;;;;;;;4995748;28;20469;-84
2020/12/22 12:58:38;;;;;;;3.67;1.77;;;;;;;;;;4994989;28;20440;-84
2020/12/22 13:01:07;;;;;;;2.33;1.60;;;;;;;;;;4994254;28;20438;-84
2020/12/22 13:03:33;;;;;;;1.90;1.57;;;;;;;;;;4991855;28;20495;-84
2020/12/22 13:05:59;;;;;;;2.63;2.40;;;;;;;;;;4991148;28;20412;-84
2020/12/22 13:08:29;;;;;;;3.23;2.53;;;;;;;;;;4974363;28;20443;-87
2020/12/22 13:10:59;;;;;;;1.30;1.20;;;;;;;;;;4983030;28;20428;-84
2020/12/22 13:13:27;;;;;;;1.47;1.37;;;;;;;;;;4983850;28;20451;-85
2020/12/22 13:16:07;;;;;;;7.27;4.97;;;;;;;;;;4997769;28;20418;-85
2020/12/22 13:18:33;;;;;;;2.90;2.20;;;;;;;;;;5034802;28;20445;-84
2020/12/22 13:21:04;;;;;;;2.27;1.67;;;;;;;;;;5036397;28;20450;-84
2020/12/22 13:23:35;;;;;;;1.77;1.30;;;;;;;;;;5032428;28;20504;-82
2020/12/22 13:26:04;;;;;;;2.53;2.33;;;;;;;;;;5075888;28;20412;-81
2020/12/22 13:29:12;;;;;;;2.23;1.67;;;;;;;;;;5069670;28;20473;-84
2020/12/22 13:31:50;;;;;;;1.90;1.67;;;;;;;;;;5055024;28;20403;-82
2020/12/22 13:34:16;;;;;;;2.47;2.27;;;;;;;;;;5040836;28;20400;-84
2020/12/22 13:36:46;;;;;;;9.20;4.90;;;;;;;;;;5057338;28;20461;-83
2020/12/22 13:39:22;;;;;;;2.03;1.93;;;;;;;;;;5056758;28;20422;-83
2020/12/22 13:42:10;;;;;;;3.67;2.80;;;;;;;;;;5056218;28;20430;-85
2020/12/22 13:44:46;;;;;;;2.47;2.23;;;;;;;;;;5057186;28;20387;-84
2020/12/22 13:47:13;;;;;;;3.50;2.10;;;;;;;;;;5056224;28;20494;-82
2020/12/22 13:49:42;;;;;;;1.57;1.47;;;;;;;;;;5058001;28;20415;-81
2020/12/22 13:52:28;;;;;;;2.00;1.80;;;;;;;;;;5075177;28;20439;-85
2020/12/22 13:54:55;;;;;;;1.60;1.50;;;;;;;;;;5074072;28;20388;-82
2020/12/22 13:57:21;;;;;;;2.50;1.67;;;;;;;;;;5072289;28;20430;-85
2020/12/22 13:59:48;;;;;;;3.57;2.70;;;;;;;;;;5053209;28;20424;-84
2020/12/22 14:02:16;;;;;;;3.40;2.67;;;;;;;;;;5053758;28;20448;-83
2020/12/22 14:05:03;;;;;;;;;;;;;;;;;;;;;
2020/12/22 14:07:35;;;;;;;3.00;1.97;;;;;;;;;;5046550;28;20493;-85
2020/12/22 14:10:15;;;;;;;;;;;;;;;;;;;;;
2020/12/22 14:12:42;;;;;;;3.97;2.40;;;;;;;;;;5050554;28;20480;-82
2020/12/22 14:15:24;;;;;;;;;;;;;;;;;;;;;
2020/12/22 14:17:53;;;;;;;1.93;1.80;;;;;;;;;;5065605;28;20426;-84
2020/12/22 14:20:30;;;;;;;4.93;2.17;;;;;;;;;;5049036;28;20902;-86
2020/12/22 14:23:05;;;;;;;2.60;2.17;;;;;;;;;;5039123;28;20450;-85
2020/12/22 14:25:39;;;;;;;2.23;2.10;;;;;;;;;;5072188;28;20414;-85
2020/12/22 14:28:21;;;;;;;1.57;1.47;;;;;;;;;;5052870;28;20484;-84
2020/12/22 14:31:29;;;;;;;;;;;;;;;;;;;;;
2020/12/22 14:34:33;;;;;;;2.67;1.63;;;;;;;;;;5065615;28;20472;-85
2020/12/22 14:37:03;;;;;;;3.50;3.00;;;;;;;;;;5047338;28;20906;-84
2020/12/22 14:39:45;;;;;;;2.20;2.00;;;;;;;;;;5063043;28;20457;-84
2020/12/22 14:42:17;;;;;;;2.63;2.00;;;;;;;;;;5062620;28;20456;-83
2020/12/22 14:44:53;;;;;;;4.00;1.87;;;;;;;;;;5025922;28;20418;-84
2020/12/22 14:47:19;;;;;;;5.23;2.50;;;;;;;;;;5042303;28;20437;-84
2020/12/22 14:50:07;;;;;;;2.37;1.73;;;;;;;;;;5068798;28;20860;-84
2020/12/22 14:52:39;;;;;;;4.33;2.77;;;;;;;;;;5047411;28;20475;-85
2020/12/22 14:55:17;;;;;;;2.37;2.17;;;;;;;;;;5053126;28;20426;-84
2020/12/22 14:58:07;;;;;;;2.57;2.23;;;;;;;;;;5030069;28;20496;-83
2020/12/22 15:00:56;;;;;;;3.00;2.37;;;;;;;;;;5052021;28;20428;-83
2020/12/22 15:03:26;;;;;;;3.00;2.60;;;;;;;;;;5032549;28;20791;-83
2020/12/22 15:06:17;;;;;;;5.03;3.23;;;;;;;;;;5068646;28;20574;-84
2020/12/22 15:09:16;;;;;;;4.47;3.73;;;;;;;;;;5070417;28;20428;-84
2020/12/22 15:12:00;;;;;;;4.57;3.67;;;;;;;;;;5049929;28;20425;-84
2020/12/22 15:14:49;;;;;;;4.43;2.70;;;;;;;;;;5064370;28;20469;-84
2020/12/22 15:17:37;;;;;;;3.80;3.50;;;;;;;;;;5045939;28;20434;-84
2020/12/22 15:23:34;;;;;;;4.80;4.30;;;;;;;;;;5001720;28;20932;-85
2020/12/22 15:26:17;;;;;;;4.47;4.07;;;;;;;;;;4970065;28;20419;-85
2020/12/22 15:28:56;;;;;;;5.13;4.63;;;;;;;;;;5012009;23;20496;-79
2020/12/22 15:31:22;;;;;;;6.77;6.07;;;;;;;;;;5020017;28;20470;-81
2020/12/22 15:34:06;;;;;;;;;;;;;;;;;;;;;
2020/12/22 15:36:39;;;;;;;4.70;4.30;;;;;;;;;;5040438;28;20430;-80
2020/12/22 15:39:08;;;;;;;6.53;4.73;;;;;;;;;;4989027;28;20432;-81
2020/12/22 15:41:36;;;;;;;4.90;4.40;;;;;;;;;;5009907;28;20525;-82
2020/12/22 15:44:14;;;;;;;7.63;6.90;;;;;;;;;;5003014;28;20418;-81
2020/12/22 15:46:44;;;;;;;4.47;4.07;;;;;;;;;;5020795;28;20409;-79
2020/12/22 15:49:24;;;;;;;4.03;3.47;;;;;;;;;;5006950;28;20481;-81
2020/12/22 15:51:53;;;;;;;6.23;4.63;;;;;;;;;;4982260;28;20423;-82
2020/12/22 15:54:28;;;;;;;3.63;3.33;;;;;;;;;;5003191;28;20403;-81
2020/12/22 15:57:02;;;;;;;3.80;3.43;;;;;;;;;;5004476;28;20415;-81
2020/12/22 15:59:30;;;;;;;5.10;2.93;;;;;;;;;;5019963;28;20486;-82
2020/12/22 16:01:57;;;;;;;4.17;3.60;;;;;;;;;;5003542;28;20418;-80
2020/12/22 16:04:24;;;;;;;4.40;2.40;;;;;;;;;;5003701;28;20433;-82
2020/12/22 16:07:07;;;;;;;;;;;;;;;;;;;;;
2020/12/22 16:20:43;;;;;;;;;;;;;;;;;;;;;
2020/12/22 16:41:58;;;;;;;1.83;1.50;;;;;;;;;;4808114;29;20559;-80
2020/12/22 16:44:48;;;;;;;1.50;1.40;;;;;;;;;;4812550;29;20440;-80
2020/12/22 16:47:50;;;;;;;;;;;;;;;;;;;;;
2020/12/22 16:51:27;;;;;;;;;;;;;;;;;;;;;
2020/12/22 17:09:43;;;;;;;;;;;;;;;;;;;;;
2020/12/22 17:27:53;;;;;;;2.60;1.60;;;;;;;;;;4793902;30;20396;-81
2020/12/22 17:30:25;;;;;;;3.37;1.83;;;;;;;;;;4792939;29;20511;-80
2020/12/22 17:54:24;;;;;;;1.60;1.50;;;10.00;99.90;;;;;;4763911;29;20429;-82
2020/12/22 17:57:13;;;;;;;;;;;;;;;;;;;;;
2020/12/22 18:00:04;;;;;;;1.80;1.70;;;;;;;;;;4813817;29;20410;-81
2020/12/22 18:03:14;;;;;;;;;;;;;;;;;;;;;
2020/12/22 18:06:08;;;;;;;1.73;1.63;;;9.60;99.90;;;;;;4832641;29;20503;-79
2020/12/22 18:09:10;;;;;;;2.47;1.97;;;9.60;99.90;;;;;;4836221;29;20515;-80
2020/12/22 18:11:39;;;;;;;1.77;1.67;;;9.60;99.90;;;;;;4864196;29;20462;-80
2020/12/22 19:10:43;;;;;;;4.53;2.27;;;9.30;99.90;;;;;;4845814;22;20917;-82
2020/12/22 19:14:36;;;;;;;;;;;;;;;;;;;;;
2020/12/22 19:29:58;;;;;;;;;;;;;;;;;;;;;
2020/12/22 19:40:24;;;;;;;9.93;1.83;;;9.40;99.90;;;;;;4830590;29;20404;-81
2020/12/22 19:43:03;;;;;;;3.80;2.70;;;9.40;99.90;;;;;;4812587;29;20839;-82
2020/12/22 19:45:35;;;;;;;1.63;1.20;;;9.30;99.90;;;;;;4845111;29;20438;-81
2020/12/22 19:48:10;;;;;;;3.97;2.13;;;9.30;99.90;;;;;;4830424;29;20537;-83
2020/12/22 19:50:45;;;;;;;3.27;2.20;;;9.30;99.90;;;;;;4832042;29;21783;-81
2020/12/22 19:53:20;;;;;;;6.47;2.80;;;9.30;99.90;;;;;;4831442;29;20459;-82
2020/12/22 20:09:10;;;;;;;2.47;2.23;;;9.30;99.90;;;;;;4775047;30;20478;-85
2020/12/22 21:00:08;;;;;;;4.77;3.80;;;9.30;99.90;;;;;;5941277;24;20429;-84
2020/12/22 21:03:41;;;;;;;;;;;;;;;;;;;;;
2020/12/22 21:11:14;;;;;;;;;;;;;;;;;;;;;
2020/12/22 21:26:56;;;;;;;4.17;3.20;;;9.10;99.90;;;;;;5860157;24;20472;-82
2020/12/22 21:29:35;;;;;;;2.80;2.23;;;9.00;99.90;;;;;;5829890;24;20938;-84
2020/12/22 21:32:39;;;;;;;4.17;2.10;;;9.00;99.90;;;;;;5780354;24;20461;-83
2020/12/22 21:48:32;;;;;;;;;;;;;;;;;;;;;
2020/12/22 21:55:02;;;;;;;2.10;1.90;;;8.80;99.90;;;;;;5716672;24;20412;-84
2020/12/22 22:01:28;;;;;;;;;;;;;;;;;;;;;
2020/12/22 22:04:55;;;;;;;;;;;;;;;;;;;;;
2020/12/22 22:08:28;;;;;;;;;;;;;;;;;;;;;
2020/12/22 22:20:24;;;;;;;;;;;;;;;;;;;;;
2020/12/22 22:24:19;;;;;;;;;;;;;;;;;;;;;
2020/12/22 22:52:24;;;;;;;8.13;2.60;;;8.10;99.90;;;;;;5078280;28;20489;-84
2020/12/22 22:54:50;;;;;;;9.20;4.13;;;8.00;99.90;;;;;;5066356;28;20434;-84
2020/12/22 22:57:50;;;;;;;;;;;;;;;;;;;;;
2020/12/22 23:00:30;;;;;;;10.47;2.90;;;7.90;99.90;;;;;;5124960;28;20415;-83
2020/12/22 23:03:29;;;;;;;;;;;;;;;;;;;;;